sensor_id;sensor_type;location;lat;lon;timestamp;pressure;altitude;pressure_sealevel;temperature;humidity
36254;BME280;22291;52.250;21.228;2024-03-23T00:53:39;99481.41;;;8.39;100.00
36254;BME280;22291;52.250;21.228;2024-03-23T00:56:05;99475.45;;;8.40;100.00
36254;BME280;22291;52.250;21.228;2024-03-23T00:58:31;99473.86;;;8.39;100.00
36254;BME280;22291;52.250;21.228;2024-03-23T01:00:57;99468.78;;;8.37;100.00
36254;BME280;22291;52.250;21.228;2024-03-23T01:03:23;99469.34;;;8.37;100.00
36254;BME280;22291;52.250;21.228;2024-03-23T01:05:49;99456.97;;;8.36;100.00
36254;BME280;22291;52.250;21.228;2024-03-23T01:08:15;99458.09;;;8.35;100.00
36254;BME280;22291;52.250;21.228;2024-03-23T01:10:42;99454.36;;;8.33;100.00
36254;BME280;22291;52.250;21.228;2024-03-23T01:13:08;99446.59;;;8.32;100.00
36254;BME280;22291;52.250;21.228;2024-03-23T01:15:34;99438.25;;;8.31;100.00
36254;BME280;22291;52.250;21.228;2024-03-23T01:18:01;99444.77;;;8.30;100.00
36254;BME280;22291;52.250;21.228;2024-03-23T01:20:27;99442.95;;;8.28;100.00
36254;BME280;22291;52.250;21.228;2024-03-23T01:22:53;99444.35;;;8.25;100.00
36254;BME280;22291;52.250;21.228;2024-03-23T01:25:20;99442.78;;;8.24;100.00
36254;BME280;22291;52.250;21.228;2024-03-23T01:27:46;99439.05;;;8.22;100.00
36254;BME280;22291;52.250;21.228;2024-03-23T01:30:12;99440.93;;;8.22;100.00
36254;BME280;22291;52.250;21.228;2024-03-23T01:32:39;99430.72;;;8.21;100.00
36254;BME280;22291;52.250;21.228;2024-03-23T01:35:06;99419.47;;;8.19;100.00
36254;BME280;22291;52.250;21.228;2024-03-23T01:37:32;99424.86;;;8.19;100.00
36254;BME280;22291;52.250;21.228;2024-03-23T01:39:59;99426.98;;;8.20;100.00
36254;BME280;22291;52.250;21.228;2024-03-23T01:42:25;99420.81;;;8.19;100.00
36254;BME280;22291;52.250;21.228;2024-03-23T01:44:51;99423.73;;;8.20;100.00
36254;BME280;22291;52.250;21.228;2024-03-23T01:47:17;99425.08;;;8.20;100.00
36254;BME280;22291;52.250;21.228;2024-03-23T01:49:43;99426.98;;;8.20;100.00
36254;BME280;22291;52.250;21.228;2024-03-23T01:52:09;99428.11;;;8.19;100.00
36254;BME280;22291;52.250;21.228;2024-03-23T01:54:36;99431.59;;;8.19;100.00
36254;BME280;22291;52.250;21.228;2024-03-23T01:57:04;99425.95;;;8.18;100.00
36254;BME280;22291;52.250;21.228;2024-03-23T01:59:31;99430.55;;;8.18;100.00
36254;BME280;22291;52.250;21.228;2024-03-23T02:01:58;99420.56;;;8.18;100.00
36254;BME280;22291;52.250;21.228;2024-03-23T02:04:24;99415.74;;;8.18;100.00
36254;BME280;22291;52.250;21.228;2024-03-23T02:06:50;99404.40;;;8.18;100.00
36254;BME280;22291;52.250;21.228;2024-03-23T02:09:17;99407.91;;;8.19;100.00
36254;BME280;22291;52.250;21.228;2024-03-23T02:11:44;99413.05;;;8.18;100.00
36254;BME280;22291;52.250;21.228;2024-03-23T02:14:10;99418.44;;;8.18;100.00
36254;BME280;22291;52.250;21.228;2024-03-23T02:16:36;99412.48;;;8.18;100.00
36254;BME280;22291;52.250;21.228;2024-03-23T02:19:02;99404.40;;;8.18;100.00
36254;BME280;22291;52.250;21.228;2024-03-23T02:21:29;99393.63;;;8.18;100.00
36254;BME280;22291;52.250;21.228;2024-03-23T02:23:59;99397.14;;;8.19;100.00
36254;BME280;22291;52.250;21.228;2024-03-23T02:26:26;99393.88;;;8.19;100.00
36254;BME280;22291;52.250;21.228;2024-03-23T02:28:52;99397.36;;;8.20;100.00
36254;BME280;22291;52.250;21.228;2024-03-23T02:31:18;99402.44;;;8.21;100.00
36254;BME280;22291;52.250;21.228;2024-03-23T02:33:45;99398.64;;;8.22;100.00
36254;BME280;22291;52.250;21.228;2024-03-23T02:36:11;99393.00;;;8.21;100.00
36254;BME280;22291;52.250;21.228;2024-03-23T02:38:37;99385.95;;;8.23;100.00
36254;BME280;22291;52.250;21.228;2024-03-23T02:41:04;99391.59;;;8.24;100.00
36254;BME280;22291;52.250;21.228;2024-03-23T02:43:30;99383.52;;;8.24;100.00
36254;BME280;22291;52.250;21.228;2024-03-23T02:45:56;99376.53;;;8.23;100.00
36254;BME280;22291;52.250;21.228;2024-03-23T02:48:23;99378.91;;;8.25;100.00
36254;BME280;22291;52.250;21.228;2024-03-23T02:50:50;99374.87;;;8.25;100.00
36254;BME280;22291;52.250;21.228;2024-03-23T02:53:16;99373.73;;;8.26;100.00
36254;BME280;22291;52.250;21.228;2024-03-23T02:55:44;99371.86;;;8.26;100.00
36254;BME280;22291;52.250;21.228;2024-03-23T02:58:10;99373.98;;;8.27;100.00
36254;BME280;22291;52.250;21.228;2024-03-23T03:00:37;99364.00;;;8.27;100.00
36254;BME280;22291;52.250;21.228;2024-03-23T03:03:04;99362.66;;;8.27;100.00
36254;BME280;22291;52.250;21.228;2024-03-23T03:05:30;99366.16;;;8.28;100.00
36254;BME280;22291;52.250;21.228;2024-03-23T03:07:56;99365.59;;;8.28;100.00
36254;BME280;22291;52.250;21.228;2024-03-23T03:10:23;99359.64;;;8.29;100.00
36254;BME280;22291;52.250;21.228;2024-03-23T03:12:49;99353.16;;;8.30;100.00
36254;BME280;22291;52.250;21.228;2024-03-23T03:15:15;99352.91;;;8.29;100.00
36254;BME280;22291;52.250;21.228;2024-03-23T03:17:41;99352.38;;;8.29;100.00
36254;BME280;22291;52.250;21.228;2024-03-23T03:20:08;99351.81;;;8.30;100.00
36254;BME280;22291;52.250;21.228;2024-03-23T03:22:36;99348.55;;;8.30;100.00
36254;BME280;22291;52.250;21.228;2024-03-23T03:25:03;99345.30;;;8.31;100.00
36254;BME280;22291;52.250;21.228;2024-03-23T03:27:29;99344.45;;;8.33;100.00
36254;BME280;22291;52.250;21.228;2024-03-23T03:29:55;99348.71;;;8.34;100.00
36254;BME280;22291;52.250;21.228;2024-03-23T03:32:22;99343.57;;;8.35;100.00
36254;BME280;22291;52.250;21.228;2024-03-23T03:34:48;99343.57;;;8.35;100.00
36254;BME280;22291;52.250;21.228;2024-03-23T03:37:16;99344.83;;;8.37;100.00
36254;BME280;22291;52.250;21.228;2024-03-23T03:39:42;99343.73;;;8.38;100.00
36254;BME280;22291;52.250;21.228;2024-03-23T03:42:08;99351.81;;;8.38;100.00
36254;BME280;22291;52.250;21.228;2024-03-23T03:44:34;99355.29;;;8.39;100.00
36254;BME280;22291;52.250;21.228;2024-03-23T03:47:03;99355.29;;;8.39;100.00
36254;BME280;22291;52.250;21.228;2024-03-23T03:49:32;99352.84;;;8.40;100.00
36254;BME280;22291;52.250;21.228;2024-03-23T03:51:58;99356.33;;;8.40;100.00
36254;BME280;22291;52.250;21.228;2024-03-23T03:54:24;99357.67;;;8.40;100.00
36254;BME280;22291;52.250;21.228;2024-03-23T03:56:50;99357.36;;;8.42;100.00
36254;BME280;22291;52.250;21.228;2024-03-23T03:59:18;99354.13;;;8.43;100.00
36254;BME280;22291;52.250;21.228;2024-03-23T04:01:46;99354.94;;;8.43;100.00
36254;BME280;22291;52.250;21.228;2024-03-23T04:04:13;99350.58;;;8.45;100.00
36254;BME280;22291;52.250;21.228;2024-03-23T04:06:40;99347.89;;;8.45;100.00
36254;BME280;22291;52.250;21.228;2024-03-23T04:09:06;99343.28;;;8.45;100.00
36254;BME280;22291;52.250;21.228;2024-03-23T04:11:33;99342.16;;;8.46;100.00
36254;BME280;22291;52.250;21.228;2024-03-23T04:13:59;99342.97;;;8.47;100.00
36254;BME280;22291;52.250;21.228;2024-03-23T04:16:27;99349.39;;;8.48;100.00
36254;BME280;22291;52.250;21.228;2024-03-23T04:18:55;99341.52;;;8.49;100.00
36254;BME280;22291;52.250;21.228;2024-03-23T04:21:23;99338.61;;;8.48;100.00
36254;BME280;22291;52.250;21.228;2024-03-23T04:23:49;99332.91;;;8.50;100.00
36254;BME280;22291;52.250;21.228;2024-03-23T04:26:15;99330.99;;;8.50;100.00
36254;BME280;22291;52.250;21.228;2024-03-23T04:28:43;99329.08;;;8.51;100.00
36254;BME280;22291;52.250;21.228;2024-03-23T04:31:11;99327.20;;;8.51;100.00
36254;BME280;22291;52.250;21.228;2024-03-23T04:33:37;99319.12;;;8.51;100.00
36254;BME280;22291;52.250;21.228;2024-03-23T04:36:04;99321.46;;;8.53;100.00
36254;BME280;22291;52.250;21.228;2024-03-23T04:38:33;99315.29;;;8.52;100.00
36254;BME280;22291;52.250;21.228;2024-03-23T04:41:01;99310.15;;;8.53;100.00
36254;BME280;22291;52.250;21.228;2024-03-23T04:43:29;99304.76;;;8.53;100.00
36254;BME280;22291;52.250;21.228;2024-03-23T04:45:55;99303.09;;;8.55;100.00
36254;BME280;22291;52.250;21.228;2024-03-23T04:48:23;99307.14;;;8.55;100.00
36254;BME280;22291;52.250;21.228;2024-03-23T04:50:57;99301.43;;;8.56;100.00
36254;BME280;22291;52.250;21.228;2024-03-23T04:53:25;99307.04;;;8.57;100.00
36254;BME280;22291;52.250;21.228;2024-03-23T04:55:53;99298.95;;;8.57;100.00
36254;BME280;22291;52.250;21.228;2024-03-23T04:58:23;99301.90;;;8.58;100.00
36254;BME280;22291;52.250;21.228;2024-03-23T05:00:57;99297.39;;;8.56;100.00
36254;BME280;22291;52.250;21.228;2024-03-23T05:03:23;99300.30;;;8.57;100.00
36254;BME280;22291;52.250;21.228;2024-03-23T05:05:52;99300.87;;;8.57;100.00
36254;BME280;22291;52.250;21.228;2024-03-23T05:08:19;99294.13;;;8.57;100.00
36254;BME280;22291;52.250;21.228;2024-03-23T05:10:45;99289.30;;;8.56;100.00
36254;BME280;22291;52.250;21.228;2024-03-23T05:13:13;99285.72;;;8.58;100.00
36254;BME280;22291;52.250;21.228;2024-03-23T05:15:39;99284.91;;;8.58;100.00
36254;BME280;22291;52.250;21.228;2024-03-23T05:18:08;99276.29;;;8.58;100.00
36254;BME280;22291;52.250;21.228;2024-03-23T05:20:34;99276.29;;;8.58;100.00
36254;BME280;22291;52.250;21.228;2024-03-23T05:23:00;99278.42;;;8.59;100.00
36254;BME280;22291;52.250;21.228;2024-03-23T05:25:26;99284.84;;;8.60;100.00
36254;BME280;22291;52.250;21.228;2024-03-23T05:27:52;99291.83;;;8.62;100.00
36254;BME280;22291;52.250;21.228;2024-03-23T05:30:21;99286.19;;;8.60;100.00
36254;BME280;22291;52.250;21.228;2024-03-23T05:32:47;99288.10;;;8.60;100.00
36254;BME280;22291;52.250;21.228;2024-03-23T05:35:13;99298.56;;;8.62;100.00
36254;BME280;22291;52.250;21.228;2024-03-23T05:37:40;99287.30;;;8.59;100.00
36254;BME280;22291;52.250;21.228;2024-03-23T05:40:06;99285.41;;;8.60;100.00
36254;BME280;22291;52.250;21.228;2024-03-23T05:42:35;99279.20;;;8.59;100.00
36254;BME280;22291;52.250;21.228;2024-03-23T05:45:06;99275.72;;;8.59;100.00
36254;BME280;22291;52.250;21.228;2024-03-23T05:47:33;99268.42;;;8.59;100.00
36254;BME280;22291;52.250;21.228;2024-03-23T05:50:00;99270.58;;;8.60;100.00
36254;BME280;22291;52.250;21.228;2024-03-23T05:52:28;99278.10;;;8.60;100.00
36254;BME280;22291;52.250;21.228;2024-03-23T05:54:56;99284.74;;;8.63;100.00
36254;BME280;22291;52.250;21.228;2024-03-23T05:57:24;99283.96;;;8.63;100.00
36254;BME280;22291;52.250;21.228;2024-03-23T05:59:52;99278.00;;;8.63;100.00
36254;BME280;22291;52.250;21.228;2024-03-23T06:02:18;99275.88;;;8.63;100.00
36254;BME280;22291;52.250;21.228;2024-03-23T06:04:46;99278.00;;;8.63;100.00
36254;BME280;22291;52.250;21.228;2024-03-23T06:07:14;99278.57;;;8.63;100.00
36254;BME280;22291;52.250;21.228;2024-03-23T06:09:42;99277.47;;;8.64;100.00
36254;BME280;22291;52.250;21.228;2024-03-23T06:12:09;99273.64;;;8.65;100.00
36254;BME280;22291;52.250;21.228;2024-03-23T06:14:35;99266.44;;;8.63;100.00
36254;BME280;22291;52.250;21.228;2024-03-23T06:17:01;99259.13;;;8.63;100.00
36254;BME280;22291;52.250;21.228;2024-03-23T06:19:29;99261.52;;;8.65;100.00
36254;BME280;22291;52.250;21.228;2024-03-23T06:21:55;99252.89;;;8.65;100.00
36254;BME280;22291;52.250;21.228;2024-03-23T06:24:23;99263.36;;;8.67;100.00
36254;BME280;22291;52.250;21.228;2024-03-23T06:26:51;99269.75;;;8.68;100.00
36254;BME280;22291;52.250;21.228;2024-03-23T06:29:18;99263.00;;;8.68;100.00
36254;BME280;22291;52.250;21.228;2024-03-23T06:31:44;99267.86;;;8.69;100.00
36254;BME280;22291;52.250;21.228;2024-03-23T06:34:12;99268.40;;;8.68;100.00
36254;BME280;22291;52.250;21.228;2024-03-23T06:36:38;99259.78;;;8.69;100.00
36254;BME280;22291;52.250;21.228;2024-03-23T06:39:04;99258.89;;;8.71;100.00
36254;BME280;22291;52.250;21.228;2024-03-23T06:41:32;99255.88;;;8.72;100.00
36254;BME280;22291;52.250;21.228;2024-03-23T06:43:58;99252.62;;;8.73;100.00
36254;BME280;22291;52.250;21.228;2024-03-23T06:46:24;99261.09;;;8.77;100.00
36254;BME280;22291;52.250;21.228;2024-03-23T06:48:50;99250.31;;;8.77;100.00
36254;BME280;22291;52.250;21.228;2024-03-23T06:51:17;99252.44;;;8.78;100.00
36254;BME280;22291;52.250;21.228;2024-03-23T06:53:43;99244.35;;;8.78;100.00
36254;BME280;22291;52.250;21.228;2024-03-23T06:56:09;99253.79;;;8.78;100.00
36254;BME280;22291;52.250;21.228;2024-03-23T06:58:35;99247.86;;;8.78;100.00
36254;BME280;22291;52.250;21.228;2024-03-23T07:01:01;99244.92;;;8.77;100.00
36254;BME280;22291;52.250;21.228;2024-03-23T07:03:28;99238.74;;;8.77;100.00
36254;BME280;22291;52.250;21.228;2024-03-23T07:05:59;99235.23;;;8.76;100.00
36254;BME280;22291;52.250;21.228;2024-03-23T07:08:25;99220.90;;;8.78;100.00
36254;BME280;22291;52.250;21.228;2024-03-23T07:10:51;99225.73;;;8.79;100.00
36254;BME280;22291;52.250;21.228;2024-03-23T07:13:17;99220.55;;;8.80;100.00
36254;BME280;22291;52.250;21.228;2024-03-23T07:15:43;99226.19;;;8.81;100.00
36254;BME280;22291;52.250;21.228;2024-03-23T07:18:09;99225.08;;;8.82;100.00
36254;BME280;22291;52.250;21.228;2024-03-23T07:20:35;99218.56;;;8.83;100.00
36254;BME280;22291;52.250;21.228;2024-03-23T07:23:01;99219.70;;;8.82;100.00
36254;BME280;22291;52.250;21.228;2024-03-23T07:25:28;99224.77;;;8.84;100.00
36254;BME280;22291;52.250;21.228;2024-03-23T07:27:56;99223.95;;;8.83;100.00
36254;BME280;22291;52.250;21.228;2024-03-23T07:30:24;99220.16;;;8.84;100.00
36254;BME280;22291;52.250;21.228;2024-03-23T07:32:50;99217.21;;;8.83;100.00
36254;BME280;22291;52.250;21.228;2024-03-23T07:35:16;99217.14;;;8.86;100.00
36254;BME280;22291;52.250;21.228;2024-03-23T07:37:45;99220.62;;;8.86;100.00
36254;BME280;22291;52.250;21.228;2024-03-23T07:40:13;99211.82;;;8.83;100.00
36254;BME280;22291;52.250;21.228;2024-03-23T07:42:40;99219.02;;;8.85;100.00
36254;BME280;22291;52.250;21.228;2024-03-23T07:45:06;99217.67;;;8.85;100.00
36254;BME280;22291;52.250;21.228;2024-03-23T07:47:35;99214.44;;;8.86;100.00
36254;BME280;22291;52.250;21.228;2024-03-23T07:50:01;99215.79;;;8.86;100.00
36254;BME280;22291;52.250;21.228;2024-03-23T07:52:30;99214.20;;;8.85;100.00
36254;BME280;22291;52.250;21.228;2024-03-23T07:54:56;99208.59;;;8.84;100.00
36254;BME280;22291;52.250;21.228;2024-03-23T07:57:22;99205.64;;;8.83;100.00
36254;BME280;22291;52.250;21.228;2024-03-23T07:59:49;99195.64;;;8.83;100.00
36254;BME280;22291;52.250;21.228;2024-03-23T08:02:15;99190.57;;;8.82;100.00
36254;BME280;22291;52.250;21.228;2024-03-23T08:04:41;99183.05;;;8.81;100.00
36254;BME280;22291;52.250;21.228;2024-03-23T08:07:07;99177.41;;;8.80;100.00
36254;BME280;22291;52.250;21.228;2024-03-23T08:09:33;99176.30;;;8.81;100.00
36254;BME280;22291;52.250;21.228;2024-03-23T08:12:00;99177.02;;;8.84;100.00
36254;BME280;22291;52.250;21.228;2024-03-23T08:14:26;99172.33;;;8.87;100.00
36254;BME280;22291;52.250;21.228;2024-03-23T08:16:54;99166.05;;;8.89;100.00
36254;BME280;22291;52.250;21.228;2024-03-23T08:19:21;99164.91;;;8.90;100.00
36254;BME280;22291;52.250;21.228;2024-03-23T08:21:47;99161.89;;;8.92;100.00
36254;BME280;22291;52.250;21.228;2024-03-23T08:24:15;99153.72;;;8.94;100.00
36254;BME280;22291;52.250;21.228;2024-03-23T08:26:41;99140.13;;;8.97;100.00
36254;BME280;22291;52.250;21.228;2024-03-23T08:29:08;99139.61;;;9.04;100.00
36254;BME280;22291;52.250;21.228;2024-03-23T08:31:34;99136.54;;;9.14;100.00
36254;BME280;22291;52.250;21.228;2024-03-23T08:34:01;99140.63;;;9.20;100.00
36254;BME280;22291;52.250;21.228;2024-03-23T08:36:30;99138.77;;;9.27;100.00
36254;BME280;22291;52.250;21.228;2024-03-23T08:38:56;99136.66;;;9.32;100.00
36254;BME280;22291;52.250;21.228;2024-03-23T08:41:23;99127.78;;;9.32;100.00
36254;BME280;22291;52.250;21.228;2024-03-23T08:43:49;99126.56;;;9.35;100.00
36254;BME280;22291;52.250;21.228;2024-03-23T08:46:17;99127.34;;;9.36;100.00
36254;BME280;22291;52.250;21.228;2024-03-23T08:48:47;99130.28;;;9.37;100.00
36254;BME280;22291;52.250;21.228;2024-03-23T08:51:16;99116.87;;;9.34;100.00
36254;BME280;22291;52.250;21.228;2024-03-23T08:53:45;99124.64;;;9.36;100.00
36254;BME280;22291;52.250;21.228;2024-03-23T08:56:13;99115.31;;;9.33;100.00
36254;BME280;22291;52.250;21.228;2024-03-23T08:58:40;99106.89;;;9.35;100.00
36254;BME280;22291;52.250;21.228;2024-03-23T09:01:08;99089.11;;;9.34;100.00
36254;BME280;22291;52.250;21.228;2024-03-23T09:03:41;99090.05;;;9.44;100.00
36254;BME280;22291;52.250;21.228;2024-03-23T09:06:10;99089.16;;;9.73;100.00
36254;BME280;22291;52.250;21.228;2024-03-23T09:08:39;99084.33;;;10.19;100.00
36254;BME280;22291;52.250;21.228;2024-03-23T09:11:11;99082.93;;;10.64;100.00
36254;BME280;22291;52.250;21.228;2024-03-23T09:13:39;99078.50;;;10.91;100.00
36254;BME280;22291;52.250;21.228;2024-03-23T09:16:07;99063.48;;;11.12;100.00
36254;BME280;22291;52.250;21.228;2024-03-23T09:18:37;99067.64;;;11.50;100.00
36254;BME280;22291;52.250;21.228;2024-03-23T09:21:13;99062.44;;;11.73;100.00
36254;BME280;22291;52.250;21.228;2024-03-23T09:23:46;99061.00;;;11.98;100.00
36254;BME280;22291;52.250;21.228;2024-03-23T09:26:12;99065.74;;;11.88;100.00
36254;BME280;22291;52.250;21.228;2024-03-23T09:28:39;99059.59;;;11.82;100.00
36254;BME280;22291;52.250;21.228;2024-03-23T09:31:08;99055.55;;;11.75;100.00
36254;BME280;22291;52.250;21.228;2024-03-23T09:33:37;99054.44;;;11.76;100.00
36254;BME280;22291;52.250;21.228;2024-03-23T09:36:07;99049.03;;;11.70;100.00
36254;BME280;22291;52.250;21.228;2024-03-23T09:38:34;99029.64;;;11.68;100.00
36254;BME280;22291;52.250;21.228;2024-03-23T09:41:08;99037.44;;;11.86;100.00
36254;BME280;22291;52.250;21.228;2024-03-23T09:43:38;99027.52;;;12.06;100.00
36254;BME280;22291;52.250;21.228;2024-03-23T09:46:04;99016.98;;;12.26;100.00
36254;BME280;22291;52.250;21.228;2024-03-23T09:48:34;99017.34;;;12.50;100.00
36254;BME280;22291;52.250;21.228;2024-03-23T09:51:04;99017.92;;;12.50;100.00
36254;BME280;22291;52.250;21.228;2024-03-23T09:53:32;99011.41;;;12.45;100.00
36254;BME280;22291;52.250;21.228;2024-03-23T09:55:59;99017.11;;;12.40;100.00
36254;BME280;22291;52.250;21.228;2024-03-23T09:58:25;99016.83;;;12.29;100.00
36254;BME280;22291;52.250;21.228;2024-03-23T10:00:51;99008.38;;;12.14;100.00
36254;BME280;22291;52.250;21.228;2024-03-23T10:03:17;99006.19;;;12.04;100.00
36254;BME280;22291;52.250;21.228;2024-03-23T10:05:45;99001.84;;;11.93;100.00
36254;BME280;22291;52.250;21.228;2024-03-23T10:08:17;98993.83;;;11.97;100.00
36254;BME280;22291;52.250;21.228;2024-03-23T10:10:46;98993.39;;;12.11;100.00
36254;BME280;22291;52.250;21.228;2024-03-23T10:13:27;98979.42;;;12.44;100.00
36254;BME280;22291;52.250;21.228;2024-03-23T10:15:57;98965.42;;;12.97;100.00
36254;BME280;22291;52.250;21.228;2024-03-23T10:18:27;98964.63;;;13.55;100.00
36254;BME280;22291;52.250;21.228;2024-03-23T10:23:41;98948.45;;;14.66;100.00
36254;BME280;22291;52.250;21.228;2024-03-23T10:26:21;98927.39;;;15.27;100.00
36254;BME280;22291;52.250;21.228;2024-03-23T10:29:02;98931.41;;;15.20;96.71
36254;BME280;22291;52.250;21.228;2024-03-23T10:31:32;98930.83;;;15.03;92.20
36254;BME280;22291;52.250;21.228;2024-03-23T10:33:58;98919.34;;;14.83;91.23
36254;BME280;22291;52.250;21.228;2024-03-23T10:36:26;98901.02;;;14.97;93.80
36254;BME280;22291;52.250;21.228;2024-03-23T10:38:58;98896.34;;;15.15;95.62
36254;BME280;22291;52.250;21.228;2024-03-23T10:41:28;98888.08;;;15.24;92.23
36254;BME280;22291;52.250;21.228;2024-03-23T10:44:00;98877.67;;;15.17;90.02
36254;BME280;22291;52.250;21.228;2024-03-23T10:46:30;98880.95;;;15.12;89.69
36254;BME280;22291;52.250;21.228;2024-03-23T10:48:57;98872.35;;;15.27;95.69
36254;BME280;22291;52.250;21.228;2024-03-23T10:51:25;98872.25;;;15.41;90.50
36254;BME280;22291;52.250;21.228;2024-03-23T10:53:53;98866.27;;;15.45;87.03
36254;BME280;22291;52.250;21.228;2024-03-23T10:56:23;98857.85;;;15.64;91.96
36254;BME280;22291;52.250;21.228;2024-03-23T10:58:53;98851.27;;;15.93;87.30
36254;BME280;22291;52.250;21.228;2024-03-23T11:01:21;98861.38;;;16.24;86.83
36254;BME280;22291;52.250;21.228;2024-03-23T11:03:47;98845.09;;;16.38;86.97
36254;BME280;22291;52.250;21.228;2024-03-23T11:06:53;98849.91;;;16.70;86.45
36254;BME280;22291;52.250;21.228;2024-03-23T11:09:02;98837.82;;;16.82;82.30
36254;BME280;22291;52.250;21.228;2024-03-23T11:11:28;98826.20;;;16.99;82.03
36254;BME280;22291;52.250;21.228;2024-03-23T11:13:56;98814.52;;;17.06;79.31
36254;BME280;22291;52.250;21.228;2024-03-23T11:16:28;98806.52;;;17.29;81.32
36254;BME280;22291;52.250;21.228;2024-03-23T11:22:07;98804.27;;;18.11;80.92
36254;BME280;22291;52.250;21.228;2024-03-23T11:24:34;98824.34;;;18.34;76.22
36254;BME280;22291;52.250;21.228;2024-03-23T11:27:02;98790.16;;;18.20;72.59
36254;BME280;22291;52.250;21.228;2024-03-23T11:29:29;98795.86;;;18.17;73.43
36254;BME280;22291;52.250;21.228;2024-03-23T11:31:57;98805.23;;;18.16;72.39
36254;BME280;22291;52.250;21.228;2024-03-23T11:34:27;98789.02;;;18.17;71.77
36254;BME280;22291;52.250;21.228;2024-03-23T11:37:03;98781.50;;;18.39;73.65
36254;BME280;22291;52.250;21.228;2024-03-23T11:39:27;98796.09;;;18.92;73.09
36254;BME280;22291;52.250;21.228;2024-03-23T11:41:56;98779.20;;;19.01;65.59
36254;BME280;22291;52.250;21.228;2024-03-23T11:44:27;98771.91;;;18.73;68.43
36254;BME280;22291;52.250;21.228;2024-03-23T11:47:07;98771.83;;;18.54;67.46
36254;BME280;22291;52.250;21.228;2024-03-23T11:49:37;98766.34;;;18.13;66.35
36254;BME280;22291;52.250;21.228;2024-03-23T11:52:05;98765.27;;;17.78;67.01
36254;BME280;22291;52.250;21.228;2024-03-23T11:54:31;98762.98;;;17.44;67.73
36254;BME280;22291;52.250;21.228;2024-03-23T11:57:00;98754.80;;;17.15;67.72
36254;BME280;22291;52.250;21.228;2024-03-23T11:59:41;98750.70;;;17.19;68.93
36254;BME280;22291;52.250;21.228;2024-03-23T12:02:10;98746.22;;;17.17;69.87
36254;BME280;22291;52.250;21.228;2024-03-23T12:04:42;98739.01;;;17.11;69.43
36254;BME280;22291;52.250;21.228;2024-03-23T12:07:22;98727.50;;;17.01;69.29
36254;BME280;22291;52.250;21.228;2024-03-23T12:10:03;98726.31;;;16.91;67.26
36254;BME280;22291;52.250;21.228;2024-03-23T12:12:33;98704.03;;;16.68;68.03
36254;BME280;22291;52.250;21.228;2024-03-23T12:15:09;98713.55;;;16.50;69.17
36254;BME280;22291;52.250;21.228;2024-03-23T12:17:36;98712.55;;;16.37;69.24
36254;BME280;22291;52.250;21.228;2024-03-23T12:20:06;98709.03;;;16.26;69.48
36254;BME280;22291;52.250;21.228;2024-03-23T12:22:33;98699.44;;;16.19;70.10
36254;BME280;22291;52.250;21.228;2024-03-23T12:25:01;98693.00;;;16.14;70.64
36254;BME280;22291;52.250;21.228;2024-03-23T12:27:32;98692.23;;;16.13;71.31
36254;BME280;22291;52.250;21.228;2024-03-23T12:29:58;98687.16;;;16.12;70.81
36254;BME280;22291;52.250;21.228;2024-03-23T12:32:26;98684.44;;;16.19;70.00
36254;BME280;22291;52.250;21.228;2024-03-23T12:34:53;98676.10;;;16.36;70.86
36254;BME280;22291;52.250;21.228;2024-03-23T12:37:19;98671.45;;;16.47;70.58
36254;BME280;22291;52.250;21.228;2024-03-23T12:39:45;98676.91;;;16.43;68.88
36254;BME280;22291;52.250;21.228;2024-03-23T12:42:11;98664.63;;;16.36;68.04
36254;BME280;22291;52.250;21.228;2024-03-23T12:44:39;98655.42;;;16.28;67.74
36254;BME280;22291;52.250;21.228;2024-03-23T12:47:05;98651.92;;;16.23;67.80
36254;BME280;22291;52.250;21.228;2024-03-23T12:49:31;98650.34;;;16.19;67.40
36254;BME280;22291;52.250;21.228;2024-03-23T12:51:58;98642.15;;;16.08;66.02
36254;BME280;22291;52.250;21.228;2024-03-23T12:54:26;98645.03;;;15.95;66.63
36254;BME280;22291;52.250;21.228;2024-03-23T12:56:55;98633.89;;;15.83;66.51
36254;BME280;22291;52.250;21.228;2024-03-23T12:59:22;98628.76;;;15.71;65.78
36254;BME280;22291;52.250;21.228;2024-03-23T13:01:48;98635.12;;;15.58;65.63
36254;BME280;22291;52.250;21.228;2024-03-23T13:04:14;98638.02;;;15.48;66.43
36254;BME280;22291;52.250;21.228;2024-03-23T13:06:42;98624.32;;;15.37;65.94
36254;BME280;22291;52.250;21.228;2024-03-23T13:09:08;98623.69;;;15.27;65.65
36254;BME280;22291;52.250;21.228;2024-03-23T13:11:34;98617.99;;;15.19;66.43
36254;BME280;22291;52.250;21.228;2024-03-23T13:14:01;98614.84;;;15.09;66.25
36254;BME280;22291;52.250;21.228;2024-03-23T13:16:27;98608.18;;;15.03;67.04
36254;BME280;22291;52.250;21.228;2024-03-23T13:18:53;98607.58;;;14.97;67.04
36254;BME280;22291;52.250;21.228;2024-03-23T13:21:19;98596.84;;;14.90;66.73
36254;BME280;22291;52.250;21.228;2024-03-23T13:23:48;98594.26;;;14.84;67.09
36254;BME280;22291;52.250;21.228;2024-03-23T13:26:16;98586.07;;;14.81;67.65
36254;BME280;22291;52.250;21.228;2024-03-23T13:28:43;98583.17;;;14.80;68.06
36254;BME280;22291;52.250;21.228;2024-03-23T13:31:11;98576.15;;;14.79;68.10
36254;BME280;22291;52.250;21.228;2024-03-23T13:33:37;98577.89;;;14.77;68.40
36254;BME280;22291;52.250;21.228;2024-03-23T13:36:09;98567.19;;;14.74;68.40
36254;BME280;22291;52.250;21.228;2024-03-23T13:38:35;98558.05;;;14.73;68.10
36254;BME280;22291;52.250;21.228;2024-03-23T13:41:05;98550.05;;;14.70;68.32
36254;BME280;22291;52.250;21.228;2024-03-23T13:43:32;98546.95;;;14.72;68.90
36254;BME280;22291;52.250;21.228;2024-03-23T13:46:00;98534.33;;;14.73;69.35
36254;BME280;22291;52.250;21.228;2024-03-23T13:48:28;98528.13;;;14.77;69.80